createdAt,value
2022-10-17T00:00:04.514Z,101598.03
2022-10-17T00:05:06.189Z,101604.38
2022-10-17T00:10:08.894Z,101589.75
2022-10-17T00:15:14.958Z,101576.72
2022-10-17T00:20:16.755Z,101587.69
2022-10-17T00:25:18.764Z,101584.63
2022-10-17T00:30:20.428Z,101588.72
2022-10-17T00:35:21.962Z,101572.78
2022-10-17T00:40:23.556Z,101565.06
2022-10-17T00:45:28.720Z,101577.91
2022-10-17T00:50:30.728Z,101562.50
2022-10-17T00:55:37.742Z,101559.22
2022-10-17T01:00:40.092Z,101552.22
2022-10-17T01:05:43.010Z,101573.28
2022-10-17T01:11:00.513Z,101542.78
2022-10-17T01:16:11.534Z,101534.22
2022-10-17T01:21:30.587Z,101530.94
2022-10-17T01:26:43.885Z,101515.88
2022-10-17T01:31:50.242Z,101498.38
2022-10-17T01:37:17.060Z,101501.97
2022-10-17T01:42:24.265Z,101495.81
2022-10-17T01:47:30.503Z,101468.91
2022-10-17T01:52:48.659Z,101470.09
2022-10-17T01:57:55.226Z,101483.47
2022-10-17T02:03:01.247Z,101471.31
2022-10-17T02:08:02.982Z,101441.16
2022-10-17T02:13:20.008Z,101438.75
2022-10-17T02:18:57.813Z,101410.28
2022-10-17T02:24:15.486Z,101408.09
2022-10-17T02:29:21.200Z,101398.13
2022-10-17T02:34:34.610Z,101403.63
2022-10-17T02:39:39.386Z,101420.41
2022-10-17T02:44:44.135Z,101405.00
2022-10-17T02:49:54.756Z,101426.59
2022-10-17T02:55:03.261Z,101419.88
2022-10-17T03:00:08.865Z,101435.66
2022-10-17T03:05:13.511Z,101429.16
2022-10-17T03:10:15.888Z,101406.69
2022-10-17T03:15:17.527Z,101405.16
2022-10-17T03:20:19.046Z,101418.69
2022-10-17T03:25:20.682Z,101417.31
2022-10-17T03:30:22.214Z,101400.34
2022-10-17T03:35:23.794Z,101416.28
2022-10-17T03:40:25.333Z,101427.09
2022-10-17T03:45:26.879Z,101423.97
2022-10-17T03:50:28.396Z,101429.28
2022-10-17T03:55:29.926Z,101427.56
2022-10-17T04:00:31.463Z,101429.25
2022-10-17T04:05:33.032Z,101428.03
2022-10-17T04:10:34.747Z,101445.53
2022-10-17T04:15:36.267Z,101416.00
2022-10-17T04:20:37.861Z,101409.81
2022-10-17T04:25:39.837Z,101433.94
2022-10-17T04:30:43.669Z,101414.47
2022-10-17T04:35:57.520Z,101416.63
2022-10-17T04:41:05.056Z,101432.94
2022-10-17T04:46:09.599Z,101422.81
2022-10-17T04:51:14.139Z,101426.75
2022-10-17T04:56:19.595Z,101439.75
2022-10-17T05:01:23.067Z,101456.72
2022-10-17T05:06:28.169Z,101455.34
2022-10-17T05:11:30.427Z,101431.88
2022-10-17T05:16:32.007Z,101431.88
2022-10-17T05:26:40.044Z,101442.47
2022-10-17T05:31:41.669Z,101443.50
2022-10-17T05:36:43.204Z,101442.66
2022-10-17T05:41:44.794Z,101441.63
2022-10-17T05:46:49.426Z,101455.25
2022-10-17T05:51:50.967Z,101455.66
2022-10-17T05:56:53.738Z,101464.22
2022-10-17T06:01:55.296Z,101475.34
2022-10-17T06:06:56.910Z,101469.69
2022-10-17T06:11:58.501Z,101455.75
2022-10-17T06:17:01.122Z,101457.56
2022-10-17T06:22:02.677Z,101470.59
2022-10-17T06:27:08.052Z,101478.28
2022-10-17T06:32:15.232Z,101480.34
2022-10-17T06:37:16.955Z,101474.00
2022-10-17T06:42:18.502Z,101488.25
2022-10-17T06:47:20.310Z,101496.28
2022-10-17T06:52:21.923Z,101515.66
2022-10-17T06:57:23.443Z,101540.59
2022-10-17T07:02:24.998Z,101540.91
2022-10-17T07:07:26.662Z,101561.31
2022-10-17T07:12:28.396Z,101550.94
2022-10-17T07:17:31.046Z,101547.81
2022-10-17T07:22:32.781Z,101558.75
2022-10-17T07:27:34.354Z,101547.09
2022-10-17T07:32:35.973Z,101555.94
2022-10-17T07:37:37.992Z,101564.81
2022-10-17T07:47:47.077Z,101580.59
2022-10-17T07:52:48.604Z,101586.28
2022-10-17T07:57:50.161Z,101598.03
2022-10-17T08:02:51.694Z,101620.91
2022-10-17T08:07:53.253Z,101634.56
2022-10-17T08:12:58.623Z,101647.25
2022-10-17T08:18:00.209Z,101663.44
2022-10-17T08:23:01.757Z,101702.78
2022-10-17T08:28:03.486Z,101720.09
2022-10-17T08:33:05.066Z,101748.06
2022-10-17T08:38:09.097Z,101743.41
2022-10-17T08:43:35.584Z,101767.84
2022-10-17T08:48:45.515Z,101763.38
2022-10-17T08:53:54.071Z,101767.00
2022-10-17T08:58:55.616Z,101750.03
2022-10-17T09:04:34.040Z,101779.25
2022-10-17T09:10:15.516Z,101757.22
2022-10-17T09:21:56.864Z,101726.09
2022-10-17T09:26:58.725Z,101713.22
2022-10-17T09:32:11.584Z,101709.03
2022-10-17T09:37:16.006Z,101723.25
2022-10-17T09:42:21.747Z,101742.69
2022-10-17T09:47:34.738Z,101767.06
2022-10-17T09:52:42.107Z,101780.31
2022-10-17T09:57:55.530Z,101755.84
2022-10-17T10:03:21.627Z,101758.06
2022-10-17T10:08:26.271Z,101784.50
2022-10-17T10:13:28.033Z,101768.69
2022-10-17T10:18:35.680Z,101799.66
2022-10-17T10:23:40.382Z,101805.38
2022-10-17T10:29:05.379Z,101824.06
2022-10-17T10:34:29.608Z,101837.41
2022-10-17T10:39:37.163Z,101830.69
2022-10-17T10:44:41.322Z,101828.34
2022-10-17T10:49:43.715Z,101844.66
2022-10-17T10:54:55.493Z,101840.69
2022-10-17T11:00:19.701Z,101857.84
2022-10-17T11:05:34.138Z,101855.13
2022-10-17T11:11:05.663Z,101866.47
2022-10-17T11:16:25.827Z,101885.16
2022-10-17T11:21:43.136Z,101891.88
2022-10-17T11:26:58.759Z,101884.31
2022-10-17T11:32:13.543Z,101900.13
2022-10-17T11:37:26.357Z,101908.91
2022-10-17T11:42:56.869Z,101926.25
2022-10-17T11:48:14.304Z,101910.97
2022-10-17T11:53:29.953Z,101929.84
2022-10-17T11:58:43.452Z,101932.78
2022-10-17T12:04:19.636Z,101944.50
2022-10-17T12:09:47.723Z,101957.38
2022-10-17T12:14:49.240Z,101942.94
2022-10-17T12:19:50.915Z,101956.66
2022-10-17T12:25:01.770Z,101973.19
2022-10-17T12:30:12.008Z,101979.53
2022-10-17T12:35:21.028Z,101964.25
2022-10-17T12:40:37.524Z,101977.81
2022-10-17T12:45:53.308Z,101959.94
2022-10-17T12:56:47.854Z,101976.41
2022-10-17T13:01:53.532Z,101974.69
2022-10-17T13:06:57.262Z,101989.50
2022-10-17T13:12:02.452Z,102003.59
2022-10-17T13:17:06.730Z,101999.34
2022-10-17T13:22:26.823Z,101981.25
2022-10-17T13:27:31.202Z,101985.81
2022-10-17T13:32:39.330Z,102010.25
2022-10-17T13:37:50.233Z,102016.56
2022-10-17T13:42:57.022Z,102022.38
2022-10-17T13:48:03.343Z,102035.97
2022-10-17T13:53:16.096Z,102035.84
2022-10-17T13:58:18.559Z,102021.19
2022-10-17T14:03:21.934Z,102022.56
2022-10-17T14:08:24.026Z,102028.63
2022-10-17T14:13:28.675Z,102013.84
2022-10-17T14:18:36.361Z,102019.56
2022-10-17T14:23:43.952Z,102019.41
2022-10-17T14:29:02.185Z,102040.44
2022-10-17T14:34:05.446Z,102050.03
2022-10-17T14:39:16.507Z,102059.13
2022-10-17T14:44:30.372Z,102059.63
2022-10-17T14:49:36.538Z,102086.75
2022-10-17T14:54:38.333Z,102083.31
2022-10-17T14:59:53.717Z,102081.63
2022-10-17T15:04:56.134Z,102102.25
2022-10-17T15:09:57.741Z,102091.91
2022-10-17T15:14:59.250Z,102106.34
2022-10-17T15:20:00.892Z,102110.59
2022-10-17T15:25:02.458Z,102103.88
2022-10-17T15:30:05.041Z,102116.00
2022-10-17T15:35:06.984Z,102118.28
2022-10-17T15:40:30.402Z,102131.72
2022-10-17T15:45:33.850Z,102146.56
2022-10-17T15:50:35.428Z,102129.38
2022-10-17T15:55:37.047Z,102125.44
2022-10-17T16:00:41.541Z,102120.38
2022-10-17T16:05:43.378Z,102159.75
2022-10-17T16:10:45.028Z,102155.00
2022-10-17T16:15:46.885Z,102153.13
2022-10-17T16:20:48.594Z,102171.28
2022-10-17T16:25:50.252Z,102164.59
2022-10-17T16:30:51.794Z,102156.72
2022-10-17T16:35:53.317Z,102170.44
2022-10-17T16:40:54.795Z,102175.19
2022-10-17T16:45:56.245Z,102168.78
2022-10-17T16:50:57.711Z,102183.38
2022-10-17T16:56:01.477Z,102193.06
2022-10-17T17:01:05.835Z,102192.38
2022-10-17T17:06:08.580Z,102189.31
2022-10-17T17:11:12.246Z,102210.59
2022-10-17T17:16:16.877Z,102205.78
2022-10-17T17:21:18.539Z,102221.06
2022-10-17T17:26:22.627Z,102226.72
2022-10-17T17:31:26.809Z,102235.66
2022-10-17T17:36:30.775Z,102247.03
2022-10-17T17:41:32.949Z,102250.81
2022-10-17T17:46:34.847Z,102250.81
2022-10-17T17:51:37.653Z,102260.09
2022-10-17T17:56:39.499Z,102271.78
2022-10-17T18:01:41.355Z,102263.03
2022-10-17T18:06:43.065Z,102280.56
2022-10-17T18:11:44.532Z,102282.13
2022-10-17T18:16:45.998Z,102293.59
2022-10-17T18:21:48.735Z,102303.94
2022-10-17T18:26:51.020Z,102294.28
2022-10-17T18:31:52.546Z,102296.34
2022-10-17T18:36:54.551Z,102313.88
2022-10-17T18:41:56.031Z,102308.31
2022-10-17T18:47:02.927Z,102319.13
2022-10-17T18:52:05.811Z,102319.63
2022-10-17T18:57:07.450Z,102320.47
2022-10-17T19:02:12.969Z,102319.63
2022-10-17T19:07:14.466Z,102329.06
2022-10-17T19:12:15.991Z,102337.47
2022-10-17T19:17:17.517Z,102335.19
2022-10-17T19:22:19.086Z,102338.25
2022-10-17T19:27:20.623Z,102353.03
2022-10-17T19:32:28.071Z,102349.00
2022-10-17T19:37:30.329Z,102352.97
2022-10-17T19:42:32.526Z,102367.34
2022-10-17T19:47:34.828Z,102367.47
2022-10-17T19:52:36.357Z,102362.47
2022-10-17T19:57:37.812Z,102388.47
2022-10-17T20:02:39.281Z,102390.81
2022-10-17T20:07:41.650Z,102392.00
2022-10-17T20:12:43.142Z,102395.22
2022-10-17T20:17:44.610Z,102401.50
2022-10-17T20:22:46.546Z,102414.31
2022-10-17T20:27:49.493Z,102424.91
2022-10-17T20:32:55.103Z,102434.00
2022-10-17T20:37:57.230Z,102435.00
2022-10-17T20:42:58.679Z,102434.94
2022-10-17T20:48:00.158Z,102451.47
2022-10-17T20:53:31.517Z,102450.94
2022-10-17T20:58:23.039Z,102462.47
2022-10-17T21:03:25.336Z,102461.06
2022-10-17T21:08:26.777Z,102465.44
2022-10-17T21:13:28.262Z,102461.44
2022-10-17T21:18:29.806Z,102468.41
2022-10-17T21:23:31.292Z,102476.06
2022-10-17T21:28:34.396Z,102476.97
2022-10-17T21:33:36.813Z,102491.88
2022-10-17T21:38:38.889Z,102487.25
2022-10-17T21:43:41.381Z,102487.50
2022-10-17T21:48:43.422Z,102490.09
2022-10-17T21:53:45.342Z,102498.66
2022-10-17T21:58:47.134Z,102494.63
2022-10-17T22:03:50.955Z,102505.47
2022-10-17T22:08:53.118Z,102516.28
2022-10-17T22:13:56.789Z,102513.53
2022-10-17T22:19:06.147Z,102507.63
2022-10-17T22:24:11.556Z,102514.84
2022-10-17T22:29:13.652Z,102517.59
2022-10-17T22:34:16.734Z,102505.50
2022-10-17T22:39:18.310Z,102524.59
2022-10-17T22:44:19.780Z,102522.44
2022-10-17T22:49:21.228Z,102528.22
2022-10-17T22:54:22.690Z,102518.88
2022-10-17T22:59:24.138Z,102524.63
2022-10-17T23:04:25.579Z,102520.41
2022-10-17T23:14:34.129Z,102536.59
2022-10-17T23:19:35.770Z,102511.91
2022-10-17T23:24:37.238Z,102523.75
2022-10-17T23:29:38.697Z,102518.00
2022-10-17T23:34:40.160Z,102518.56
2022-10-17T23:39:41.614Z,102516.97
2022-10-17T23:44:43.098Z,102521.31
2022-10-17T23:49:44.590Z,102520.16
2022-10-17T23:54:46.056Z,102536.88
2022-10-17T23:59:47.549Z,102530.69
